Delta Virtual Airport Information Service

Savannah Hilton Head International Airport

ICAO: KSAV Country: United States
Latitude: 32.1276 Longitude: -81.2021
Latest Arrival : DAL1013 (B) (KATL-KSAV) Latest Departure : DAL2145 (2) (KSAV-KATL)


WX CaptureLIVE
Data provided by noaa.gov | Fetched at 05:21:39

METAR : KSAV 300953Z 27005KT 10SM BKN250 14/13 A2999 RMK AO2 SLP155 T01440128

TAF : KSAV 300524Z 3006/0106 28007KT P6SM SCT030 BKN150 FM301200 31007KT P6SM SKC FM302200 26006KT P6SM SKC


Runway Data for KSAV
Data provided by openaviationdata.com

Runway ID Mag Var Hdg Length Elevation Surface ILS Freq ILS Id ILS Slope
9 -6 96° 9341 ft 50 ft Concrete 109.9 ISAV 3
18 -6 185° 7017 ft 50 ft Asphalt -- -- --
27 -6 276° 9341 ft 50 ft Concrete -- -- --
36 -6 7017 ft 50 ft Asphalt 111.9 ITPV 3

Savannah Hilton Head International Airport, United States
Use only for reference purposes



Not for navigational purposes.